KBLU Airport (Blue Canyon - Nyack) Information

FAA: BLU - ICAO: KBLU

KBLU Airport Location

State California
County Placer
City Emigrant Gap
KBLU Airport is 1 miles south of Emigrant Gap, CA.
Latitude 39-16-29.9000N
Longitude 120-42-35.1000W
Elevation 5,283ft

KBLU Airport METARs

METAR KBLU 121352Z AUTO 12004KT 10SM CLR 17/04 A3023 RMK AO2 SLP148 T01670044
Altimeter 30.23"
Temperature 16.7°C (62.1°F)
Wind 120° at 4KT
Clouds Skies are clear.
Visibility 10.0mi
Time observed: 2022-08-12T13:52:00Z

KBLU Airport Details

Status Operational
Activation May 1941
Ownership Public
Usage Public
Chart SAN FRANCISCO
ATC on-site No
Beacon schedule N/A
Beacon color clear green

KBLU Airport Contacts

Owner COUNTY OF PLACER
Owner address 3091 COUNTY CTR DR., AUBURN, CA 95603
Owner phone 530-745-7500
Manager J CHEKIE
Manager address 170 N FAIR OAKS, PASA, CA 91103
Manager phone 818-578-2922

KBLU Airport (Blue Canyon - Nyack) Radio Frequencies

KBLU (Airport) Radio Frequencies

UNICOM N/A
Common traffic advisory frequency (CTAF) 122.9